Time;durP1;ratioP1;P1;durP2;ratioP2;P2;SDS_P1;SDS_P2;PMS_P1;PMS_P2;Temp;Humidity;BMP_temperature;BMP_pressure;BME280_temperature;BME280_humidity;BME280_pressure;Samples;Min_cycle;Max_cycle;Signal;HPM_P1;HPM_P2
2023/10/20 00:00:32;;;;;;;;;;;;;;;;;;5127785;27;19930;-44
2023/10/20 00:02:58;;;;;;;;;;;;;;;;;;5127433;28;19927;-43
2023/10/20 00:05:23;;;;;;;;;;;;;;;;;;5127585;28;20004;-44
2023/10/20 00:07:49;;;;;;;;;;;;;;;;;;5126467;27;19998;-43
2023/10/20 00:10:14;;;;;;;;;;;;;;;;;;5133485;27;19924;-43
2023/10/20 00:12:40;;;;;;;;;;;;;;;;;;5147951;27;20528;-44
2023/10/20 00:15:05;;;;;;;;;;;;;;;;;;5148267;27;20284;-46
2023/10/20 00:17:31;;;;;;;;;;;;;;;;;;5147851;27;19985;-44
2023/10/20 00:19:56;;;;;;;;;;;;;;;;;;5127035;27;19970;-44
2023/10/20 00:22:22;;;;;;;;;;;;;;;;;;5126929;28;19924;-44
2023/10/20 00:24:47;;;;;;;;;;;;;;;;;;5127759;28;20438;-45
2023/10/20 00:27:13;;;;;;;;;;;;;;;;;;5126932;28;19924;-43
2023/10/20 00:29:39;;;;;;;;;;;;;;;;;;5126622;27;19994;-43
2023/10/20 00:32:04;;;;;;;;;;;;;;;;;;5126725;28;20466;-43
2023/10/20 00:34:30;;;;;;;;;;;;;;;;;;5126982;28;20389;-44
2023/10/20 00:36:56;;;;;;;;;;;;;;;;;;5125851;28;19927;-49
2023/10/20 00:39:23;;;;;;;;;;;;;;;;;;5126480;27;20018;-45
2023/10/20 00:41:48;;;;;;;;;;;;;;;;;;5146104;27;19973;-44
2023/10/20 00:44:14;;;;;;;;;;;;;;;;;;5147384;27;19923;-44
2023/10/20 00:46:39;;;;;;;;;;;;;;;;;;5140422;27;19923;-43
2023/10/20 00:49:05;;;;;;;;;;;;;;;;;;5126498;27;19932;-46
2023/10/20 00:51:30;;;;;;;;;;;;;;;;;;5127300;27;20438;-43
2023/10/20 00:53:56;;;;;;;;;;;;;;;;;;5123338;27;19975;-45
2023/10/20 00:56:22;;;;;;;;;;;;;;;;;;5105108;28;21080;-45
2023/10/20 00:58:48;;;;;;;;;;;;;;;;;;5106173;28;19928;-46
2023/10/20 01:01:13;;;;;;;;;;;;;;;;;;5106992;28;20411;-43
2023/10/20 01:03:39;;;;;;;;;;;;;;;;;;5107326;28;20412;-44
2023/10/20 01:06:04;;;;;;;;;;;;;;;;;;5106593;28;20014;-42
2023/10/20 01:08:30;;;;;;;;;;;;;;;;;;5105617;28;20030;-44
2023/10/20 01:10:56;;;;;;;;;;;;;;;;;;5116716;28;20310;-44
2023/10/20 01:13:22;;;;;;;;;;;;;;;;;;5126650;28;19928;-45
2023/10/20 01:15:48;;;;;;;;;;;;;;;;;;5125948;28;20378;-43
2023/10/20 01:18:14;;;;;;;;;;;;;;;;;;5119489;28;19924;-44
2023/10/20 01:20:40;;;;;;;;;;;;;;;;;;5106641;28;19924;-43
2023/10/20 01:23:05;;;;;;;;;;;;;;;;;;5106450;28;20003;-44
2023/10/20 01:25:31;;;;;;;;;;;;;;;;;;5106603;28;20328;-44
2023/10/20 01:27:56;;;;;;;;;;;;;;;;;;5105829;28;19924;-44
2023/10/20 01:30:22;;;;;;;;;;;;;;;;;;5105621;28;20061;-43
2023/10/20 01:32:47;;;;;;;;;;;;;;;;;;5105543;28;19958;-45
2023/10/20 01:35:13;;;;;;;;;;;;;;;;;;5105332;28;19923;-45
2023/10/20 01:37:39;;;;;;;;;;;;;;;;;;5104080;28;20338;-45
2023/10/20 01:40:06;;;;;;;;;;;;;;;;;;5105575;28;20350;-44
2023/10/20 01:42:31;;;;;;;;;;;;;;;;;;5106011;28;19982;-44
2023/10/20 01:44:57;;;;;;;;;;;;;;;;;;5106167;28;19924;-43
2023/10/20 01:47:22;;;;;;;;;;;;;;;;;;5105824;28;20174;-44
2023/10/20 01:49:48;;;;;;;;;;;;;;;;;;5105000;28;20372;-45
2023/10/20 01:52:13;;;;;;;;;;;;;;;;;;5125950;28;20002;-43
2023/10/20 01:54:39;;;;;;;;;;;;;;;;;;5112927;28;20372;-43
2023/10/20 01:57:04;;;;;;;;;;;;;;;;;;5106126;28;20022;-46
2023/10/20 01:59:29;;;;;;;;;;;;;;;;;;5108088;28;20190;-46
2023/10/20 02:01:55;;;;;;;;;;;;;;;;;;5108985;28;19959;-44
2023/10/20 02:04:20;;;;;;;;;;;;;;;;;;5109150;28;20313;-43
2023/10/20 02:06:47;;;;;;;;;;;;;;;;;;5109758;28;20010;-44
2023/10/20 02:09:12;;;;;;;;;;;;;;;;;;5108893;28;19971;-43
2023/10/20 02:11:38;;;;;;;;;;;;;;;;;;5124214;28;19970;-45
2023/10/20 02:14:03;;;;;;;;;;;;;;;;;;5130370;28;19927;-43
2023/10/20 02:16:29;;;;;;;;;;;;;;;;;;5129713;28;20022;-48
2023/10/20 02:18:54;;;;;;;;;;;;;;;;;;5117868;28;19947;-43
2023/10/20 02:21:20;;;;;;;;;;;;;;;;;;5109262;28;19930;-43
2023/10/20 02:23:45;;;;;;;;;;;;;;;;;;5109764;28;19924;-44
2023/10/20 02:26:11;;;;;;;;;;;;;;;;;;5109394;28;19928;-46
2023/10/20 02:28:36;;;;;;;;;;;;;;;;;;5109253;28;19924;-43
2023/10/20 02:31:02;;;;;;;;;;;;;;;;;;5118198;28;20027;-44
2023/10/20 02:33:27;;;;;;;;;;;;;;;;;;5129732;28;19923;-46
2023/10/20 02:35:53;;;;;;;;;;;;;;;;;;5116539;28;20208;-45
2023/10/20 02:38:19;;;;;;;;;;;;;;;;;;5107835;28;20343;-44
2023/10/20 02:40:44;;;;;;;;;;;;;;;;;;5108344;28;19973;-43
2023/10/20 02:43:10;;;;;;;;;;;;;;;;;;5109585;28;20014;-44
2023/10/20 02:45:35;;;;;;;;;;;;;;;;;;5108848;28;19923;-44
2023/10/20 02:48:03;;;;;;;;;;;;;;;;;;5108954;28;19975;-46
2023/10/20 02:50:29;;;;;;;;;;;;;;;;;;5109457;28;19924;-47
2023/10/20 02:52:54;;;;;;;;;;;;;;;;;;5109921;28;19969;-43
2023/10/20 02:55:20;;;;;;;;;;;;;;;;;;5109109;28;19924;-43
2023/10/20 02:57:45;;;;;;;;;;;;;;;;;;5108292;28;20137;-47
2023/10/20 03:00:14;;;;;;;;;;;;;;;;;;5109263;28;20011;-44
2023/10/20 03:02:40;;;;;;;;;;;;;;;;;;5109566;28;19927;-45
2023/10/20 03:05:06;;;;;;;;;;;;;;;;;;5109917;28;20052;-44
2023/10/20 03:07:32;;;;;;;;;;;;;;;;;;5108208;28;19935;-46
2023/10/20 03:09:57;;;;;;;;;;;;;;;;;;5109719;28;19952;-43
2023/10/20 03:12:24;;;;;;;;;;;;;;;;;;5109051;28;19923;-48
2023/10/20 03:14:49;;;;;;;;;;;;;;;;;;5109338;28;19978;-43
2023/10/20 03:17:14;;;;;;;;;;;;;;;;;;5108509;28;20011;-48
2023/10/20 03:19:40;;;;;;;;;;;;;;;;;;5108330;28;19928;-43
2023/10/20 03:22:05;;;;;;;;;;;;;;;;;;5108662;28;19988;-43
2023/10/20 03:24:32;;;;;;;;;;;;;;;;;;5108827;28;19985;-43
2023/10/20 03:26:58;;;;;;;;;;;;;;;;;;5108313;28;20375;-44
2023/10/20 03:29:24;;;;;;;;;;;;;;;;;;5108695;28;19978;-43
2023/10/20 03:31:49;;;;;;;;;;;;;;;;;;5108044;28;19924;-47
2023/10/20 03:34:15;;;;;;;;;;;;;;;;;;5109176;28;20454;-43
2023/10/20 03:36:41;;;;;;;;;;;;;;;;;;5108073;28;19924;-44
2023/10/20 03:39:19;;;;;;;;;;;;;;;;;;5107230;28;20400;-43
2023/10/20 03:41:45;;;;;;;;;;;;;;;;;;5120975;28;19930;-43
2023/10/20 03:44:10;;;;;;;;;;;;;;;;;;5129136;28;20010;-44
2023/10/20 03:46:43;;;;;;;;;;;;;;;;;;5128984;28;19988;-43
2023/10/20 03:49:09;;;;;;;;;;;;;;;;;;5114997;28;20356;-43
2023/10/20 03:51:37;;;;;;;;;;;;;;;;;;5107418;28;19939;-45
2023/10/20 03:54:03;;;;;;;;;;;;;;;;;;5107762;28;20372;-43
2023/10/20 03:56:29;;;;;;;;;;;;;;;;;;5107174;28;19966;-49
2023/10/20 03:58:56;;;;;;;;;;;;;;;;;;5106816;28;19923;-46
2023/10/20 04:01:21;;;;;;;;;;;;;;;;;;5107628;28;19975;-46
2023/10/20 04:03:50;;;;;;;;;;;;;;;;;;5107470;28;20014;-45
2023/10/20 04:06:16;;;;;;;;;;;;;;;;;;5106832;28;19927;-44
2023/10/20 04:08:42;;;;;;;;;;;;;;;;;;5106705;28;19963;-45
2023/10/20 04:11:07;;;;;;;;;;;;;;;;;;5107002;28;19962;-43
2023/10/20 04:13:33;;;;;;;;;;;;;;;;;;5107234;28;20444;-44
2023/10/20 04:15:58;;;;;;;;;;;;;;;;;;5106758;28;20049;-45
2023/10/20 04:18:24;;;;;;;;;;;;;;;;;;5106043;28;19973;-43
2023/10/20 04:20:50;;;;;;;;;;;;;;;;;;5109502;28;19923;-46
2023/10/20 04:23:16;;;;;;;;;;;;;;;;;;5128000;28;19927;-44
2023/10/20 04:25:52;;;;;;;;;;;;;;;;;;5127592;28;19950;-44
2023/10/20 04:28:20;;;;;;;;;;;;;;;;;;5120618;28;19963;-44
2023/10/20 04:58:11;;;;;;;;;;;;;;;;;;5185934;27;20002;-44
2023/10/20 05:00:37;;;;;;;;;;;;;;;;;;5184874;27;19950;-44
2023/10/20 05:05:44;;;;;;;;;;;;;;;;;;5186607;27;20050;-43
2023/10/20 05:10:39;;;;;;;;;;;;;;;;;;5186120;27;19933;-43
2023/10/20 05:13:07;;;;;;;;;;;;;;;;;;5187322;27;19927;-44
2023/10/20 05:15:38;;;;;;;;;;;;;;;;;;5186902;27;20083;-44
2023/10/20 05:18:04;;;;;;;;;;;;;;;;;;5186426;27;19977;-44
2023/10/20 05:20:29;;;;;;;;;;;;;;;;;;5186211;27;19954;-46
2023/10/20 05:22:56;;;;;;;;;;;;;;;;;;5185141;27;19933;-47
2023/10/20 05:25:21;;;;;;;;;;;;;;;;;;5185908;27;19964;-44
2023/10/20 05:27:47;;;;;;;;;;;;;;;;;;5182777;27;20013;-44
2023/10/20 05:30:13;;;;;;;;;;;;;;;;;;5164252;27;19923;-46
2023/10/20 05:32:38;;;;;;;;;;;;;;;;;;5182135;27;20379;-45
2023/10/20 05:35:04;;;;;;;;;;;;;;;;;;5185960;27;19981;-45
2023/10/20 05:37:29;;;;;;;;;;;;;;;;;;5178111;27;19926;-43
2023/10/20 05:39:55;;;;;;;;;;;;;;;;;;5171642;27;20010;-46
2023/10/20 05:42:20;;;;;;;;;;;;;;;;;;5176448;27;20071;-45
2023/10/20 05:45:17;;;;;;;;;;;;;;;;;;5143354;27;19948;-45
2023/10/20 05:47:31;;;;;;;;;;;;;;;;;;5128924;27;19927;-43
2023/10/20 05:49:57;;;;;;;;;;;;;;;;;;5154085;27;20027;-43
2023/10/20 05:52:23;;;;;;;;;;;;;;;;;;5159089;27;19923;-47
2023/10/20 05:54:49;;;;;;;;;;;;;;;;;;5159899;27;19954;-43
2023/10/20 05:57:14;;;;;;;;;;;;;;;;;;5153338;27;20375;-42
2023/10/20 05:59:41;;;;;;;;;;;;;;;;;;5144336;27;20386;-46
2023/10/20 06:02:07;;;;;;;;;;;;;;;;;;5138270;27;20407;-43
2023/10/20 06:04:33;;;;;;;;;;;;;;;;;;5142930;27;19927;-44
2023/10/20 06:06:59;;;;;;;;;;;;;;;;;;5140828;27;19975;-43
2023/10/20 06:09:25;;;;;;;;;;;;;;;;;;5147793;27;19927;-48
2023/10/20 06:11:50;;;;;;;;;;;;;;;;;;5154725;27;19966;-45
2023/10/20 06:14:16;;;;;;;;;;;;;;;;;;5149170;27;20309;-44
2023/10/20 06:16:42;;;;;;;;;;;;;;;;;;5138907;27;19992;-44
2023/10/20 06:19:07;;;;;;;;;;;;;;;;;;5136370;27;20352;-46
2023/10/20 06:21:35;;;;;;;;;;;;;;;;;;5140201;27;20314;-43
2023/10/20 06:24:01;;;;;;;;;;;;;;;;;;5134023;27;20374;-44
2023/10/20 06:26:26;;;;;;;;;;;;;;;;;;5138623;27;20018;-46
2023/10/20 06:28:52;;;;;;;;;;;;;;;;;;5133871;27;19938;-45
2023/10/20 06:31:38;;;;;;;;;;;;;;;;;;5129685;27;20018;-46
2023/10/20 06:34:17;;;;;;;;;;;;;;;;;;5122295;27;20029;-43
2023/10/20 06:36:48;;;;;;;;;;;;;;;;;;5134547;27;19962;-43
2023/10/20 06:39:13;;;;;;;;;;;;;;;;;;5140625;27;19927;-43
2023/10/20 06:41:39;;;;;;;;;;;;;;;;;;5136203;27;20033;-43
2023/10/20 06:44:04;;;;;;;;;;;;;;;;;;5137596;27;20387;-46
2023/10/20 06:46:30;;;;;;;;;;;;;;;;;;5135525;27;19934;-43
2023/10/20 06:48:56;;;;;;;;;;;;;;;;;;5130777;27;19923;-44
2023/10/20 06:51:21;;;;;;;;;;;;;;;;;;5131161;27;19958;-45
2023/10/20 06:53:47;;;;;;;;;;;;;;;;;;5136674;27;20009;-42
2023/10/20 06:56:12;;;;;;;;;;;;;;;;;;5123283;27;19987;-44
2023/10/20 06:58:41;;;;;;;;;;;;;;;;;;5119965;27;20318;-47
2023/10/20 07:01:07;;;;;;;;;;;;;;;;;;5121225;27;19923;-46
2023/10/20 07:03:32;;;;;;;;;;;;;;;;;;5119572;27;20674;-44
2023/10/20 07:05:58;;;;;;;;;;;;;;;;;;5113795;27;21272;-44
2023/10/20 07:08:24;;;;;;;;;;;;;;;;;;5120328;27;19931;-44
2023/10/20 07:10:50;;;;;;;;;;;;;;;;;;5119067;27;19934;-45
2023/10/20 07:13:17;;;;;;;;;;;;;;;;;;5129690;27;20398;-43
2023/10/20 07:15:43;;;;;;;;;;;;;;;;;;5130078;27;20215;-45
2023/10/20 07:18:11;;;;;;;;;;;;;;;;;;5135968;27;20138;-43
2023/10/20 07:20:39;;;;;;;;;;;;;;;;;;5130739;27;19927;-44
2023/10/20 07:23:05;;;;;;;;;;;;;;;;;;5130423;27;19978;-43
2023/10/20 07:25:30;;;;;;;;;;;;;;;;;;5129354;27;20403;-43
2023/10/20 07:27:57;;;;;;;;;;;;;;;;;;5133885;27;20375;-45
2023/10/20 07:30:23;;;;;;;;;;;;;;;;;;5136202;27;19950;-45
2023/10/20 07:32:51;;;;;;;;;;;;;;;;;;5136491;27;19923;-44
2023/10/20 07:35:16;;;;;;;;;;;;;;;;;;5139910;27;19938;-46
2023/10/20 07:37:43;;;;;;;;;;;;;;;;;;5141953;27;20025;-45
2023/10/20 07:40:08;;;;;;;;;;;;;;;;;;5134434;27;19988;-44
2023/10/20 07:42:34;;;;;;;;;;;;;;;;;;5132654;27;20272;-45
2023/10/20 07:45:00;;;;;;;;;;;;;;;;;;5139827;27;19923;-44
2023/10/20 07:47:25;;;;;;;;;;;;;;;;;;5143478;27;19923;-44
2023/10/20 07:49:51;;;;;;;;;;;;;;;;;;5142013;27;19931;-46
2023/10/20 07:52:17;;;;;;;;;;;;;;;;;;5142452;27;19930;-47
2023/10/20 07:54:42;;;;;;;;;;;;;;;;;;5148937;27;19927;-43
2023/10/20 07:57:09;;;;;;;;;;;;;;;;;;5135306;27;20143;-44
2023/10/20 07:59:35;;;;;;;;;;;;;;;;;;5141382;27;19966;-46
2023/10/20 08:02:00;;;;;;;;;;;;;;;;;;5137031;27;19931;-44
2023/10/20 08:04:26;;;;;;;;;;;;;;;;;;5143275;27;20443;-43
2023/10/20 08:06:54;;;;;;;;;;;;;;;;;;5140561;27;19927;-43
2023/10/20 08:09:20;;;;;;;;;;;;;;;;;;5125762;27;19971;-45
2023/10/20 08:11:45;;;;;;;;;;;;;;;;;;5132244;27;19996;-43
2023/10/20 08:14:11;;;;;;;;;;;;;;;;;;5124417;27;19923;-46
2023/10/20 08:16:36;;;;;;;;;;;;;;;;;;5130542;27;19931;-46
2023/10/20 08:19:02;;;;;;;;;;;;;;;;;;5131975;27;19935;-45
2023/10/20 08:21:29;;;;;;;;;;;;;;;;;;5131635;27;19974;-45
2023/10/20 08:23:55;;;;;;;;;;;;;;;;;;5129643;27;19961;-45
2023/10/20 08:26:21;;;;;;;;;;;;;;;;;;5132261;27;20411;-44
2023/10/20 08:28:47;;;;;;;;;;;;;;;;;;5132343;27;20009;-45
2023/10/20 08:31:14;;;;;;;;;;;;;;;;;;5140933;27;19927;-44
2023/10/20 08:33:39;;;;;;;;;;;;;;;;;;5124812;27;19939;-44
2023/10/20 08:36:05;;;;;;;;;;;;;;;;;;5128776;27;19927;-44
2023/10/20 08:38:30;;;;;;;;;;;;;;;;;;5132919;27;19934;-43
2023/10/20 08:40:56;;;;;;;;;;;;;;;;;;5135190;27;19938;-45
2023/10/20 08:43:26;;;;;;;;;;;;;;;;;;5133432;27;19966;-44
2023/10/20 08:45:52;;;;;;;;;;;;;;;;;;5141331;27;19923;-49
2023/10/20 08:48:17;;;;;;;;;;;;;;;;;;5140436;27;20049;-45
2023/10/20 08:50:43;;;;;;;;;;;;;;;;;;5133183;27;19933;-45
2023/10/20 08:53:08;;;;;;;;;;;;;;;;;;5124921;27;19924;-43
2023/10/20 08:55:34;;;;;;;;;;;;;;;;;;5129452;27;20004;-43
2023/10/20 08:57:59;;;;;;;;;;;;;;;;;;5137611;27;19923;-44
2023/10/20 09:00:25;;;;;;;;;;;;;;;;;;5137102;27;19985;-44
2023/10/20 09:02:50;;;;;;;;;;;;;;;;;;5141431;27;19923;-46
2023/10/20 09:05:16;;;;;;;;;;;;;;;;;;5143028;27;20289;-44
2023/10/20 09:07:41;;;;;;;;;;;;;;;;;;5139658;27;19929;-45
2023/10/20 09:10:07;;;;;;;;;;;;;;;;;;5143671;27;19923;-47
2023/10/20 09:12:32;;;;;;;;;;;;;;;;;;5128074;27;19930;-47
2023/10/20 09:14:58;;;;;;;;;;;;;;;;;;5140147;27;19927;-45
2023/10/20 09:17:23;;;;;;;;;;;;;;;;;;5131366;27;20294;-44
2023/10/20 09:19:48;;;;;;;;;;;;;;;;;;5066964;28;20011;-46
2023/10/20 09:22:14;;;;;;;;;;;;;;;;;;5071229;28;19932;-47
2023/10/20 09:24:39;;;;;;;;;;;;;;;;;;5071747;28;20353;-44
2023/10/20 09:27:06;;;;;;;;;;;;;;;;;;5068843;28;20047;-46
2023/10/20 09:29:31;;;;;;;;;;;;;;;;;;5067066;28;19978;-44
2023/10/20 09:31:57;;;;;;;;;;;;;;;;;;5063006;28;20481;-46
2023/10/20 09:34:22;;;;;;;;;;;;;;;;;;5063796;28;20027;-46
2023/10/20 09:36:48;;;;;;;;;;;;;;;;;;5060459;28;19928;-44
2023/10/20 09:39:16;;;;;;;;;;;;;;;;;;5125465;27;20799;-43
2023/10/20 09:41:42;;;;;;;;;;;;;;;;;;5133679;27;19927;-46
2023/10/20 09:44:08;;;;;;;;;;;;;;;;;;5133707;27;20238;-44
2023/10/20 09:46:34;;;;;;;;;;;;;;;;;;5135609;27;19935;-44
2023/10/20 09:48:59;;;;;;;;;;;;;;;;;;5131156;27;20064;-44
2023/10/20 09:51:25;;;;;;;;;;;;;;;;;;5142248;27;20466;-44
2023/10/20 09:53:50;;;;;;;;;;;;;;;;;;5135537;27;19950;-44
2023/10/20 09:56:16;;;;;;;;;;;;;;;;;;5140605;27;19927;-45
2023/10/20 09:58:41;;;;;;;;;;;;;;;;;;5144234;27;20379;-44
2023/10/20 10:01:07;;;;;;;;;;;;;;;;;;5142128;27;20026;-45
2023/10/20 10:03:45;;;;;;;;;;;;;;;;;;5142864;27;19935;-43
2023/10/20 10:06:11;;;;;;;;;;;;;;;;;;5143558;27;19927;-43
2023/10/20 10:08:36;;;;;;;;;;;;;;;;;;5141951;27;20421;-44
2023/10/20 10:11:03;;;;;;;;;;;;;;;;;;5146826;27;20010;-45
2023/10/20 10:13:28;;;;;;;;;;;;;;;;;;5145310;27;19958;-45
2023/10/20 10:15:53;;;;;;;;;;;;;;;;;;5146087;27;20013;-44
2023/10/20 10:18:22;;;;;;;;;;;;;;;;;;5145965;27;19981;-45
2023/10/20 10:20:48;;;;;;;;;;;;;;;;;;5135979;27;20422;-44
2023/10/20 10:23:14;;;;;;;;;;;;;;;;;;5147139;27;19923;-45
2023/10/20 10:25:40;;;;;;;;;;;;;;;;;;5149754;27;21575;-47
2023/10/20 10:28:05;;;;;;;;;;;;;;;;;;5146084;27;19927;-45
2023/10/20 10:30:31;;;;;;;;;;;;;;;;;;5146924;27;20363;-43
2023/10/20 10:32:56;;;;;;;;;;;;;;;;;;5142016;27;20005;-44
2023/10/20 10:35:22;;;;;;;;;;;;;;;;;;5140396;27;19980;-44
2023/10/20 10:37:50;;;;;;;;;;;;;;;;;;5139980;27;19979;-44
2023/10/20 10:40:16;;;;;;;;;;;;;;;;;;5128038;27;19931;-43
2023/10/20 10:42:42;;;;;;;;;;;;;;;;;;5143932;27;19927;-44
2023/10/20 10:45:08;;;;;;;;;;;;;;;;;;5126561;27;19927;-44
2023/10/20 10:47:33;;;;;;;;;;;;;;;;;;5132019;27;19980;-45
2023/10/20 10:49:59;;;;;;;;;;;;;;;;;;5136630;27;19927;-44
2023/10/20 10:52:24;;;;;;;;;;;;;;;;;;5126145;27;19986;-46
2023/10/20 10:54:50;;;;;;;;;;;;;;;;;;5134885;27;20018;-45
2023/10/20 10:57:16;;;;;;;;;;;;;;;;;;5136605;27;20743;-44
2023/10/20 10:59:41;;;;;;;;;;;;;;;;;;5144748;27;19927;-44
2023/10/20 11:02:07;;;;;;;;;;;;;;;;;;5140386;27;19923;-45
2023/10/20 11:04:33;;;;;;;;;;;;;;;;;;5140197;27;20352;-45
2023/10/20 11:06:59;;;;;;;;;;;;;;;;;;5134147;27;19930;-46
2023/10/20 11:09:27;;;;;;;;;;;;;;;;;;5139713;27;19927;-47
2023/10/20 11:11:52;;;;;;;;;;;;;;;;;;5137659;27;20007;-43
2023/10/20 11:14:18;;;;;;;;;;;;;;;;;;5136112;27;19927;-43
2023/10/20 11:16:47;;;;;;;;;;;;;;;;;;5139555;27;19931;-43
2023/10/20 11:19:13;;;;;;;;;;;;;;;;;;5139484;27;20293;-44
2023/10/20 11:21:38;;;;;;;;;;;;;;;;;;5138118;27;19977;-45
2023/10/20 11:24:04;;;;;;;;;;;;;;;;;;5144124;27;20017;-45
2023/10/20 11:26:30;;;;;;;;;;;;;;;;;;5142924;27;20351;-46
2023/10/20 11:28:57;;;;;;;;;;;;;;;;;;5080383;28;19935;-43
2023/10/20 11:31:23;;;;;;;;;;;;;;;;;;5078582;28;19987;-43
2023/10/20 11:33:48;;;;;;;;;;;;;;;;;;5083613;28;20101;-44
2023/10/20 11:36:14;;;;;;;;;;;;;;;;;;5071816;28;19928;-45
2023/10/20 11:38:39;;;;;;;;;;;;;;;;;;5076419;28;20351;-44
2023/10/20 11:41:05;;;;;;;;;;;;;;;;;;5080040;28;20055;-43
2023/10/20 11:43:30;;;;;;;;;;;;;;;;;;5079051;28;20312;-44
2023/10/20 11:45:56;;;;;;;;;;;;;;;;;;5078243;27;20857;-44
2023/10/20 11:48:21;;;;;;;;;;;;;;;;;;5124543;27;19950;-43
2023/10/20 11:50:47;;;;;;;;;;;;;;;;;;5131700;27;20487;-46
2023/10/20 11:53:12;;;;;;;;;;;;;;;;;;5138353;27;19923;-44
2023/10/20 11:55:39;;;;;;;;;;;;;;;;;;5139254;27;19923;-43
2023/10/20 11:58:05;;;;;;;;;;;;;;;;;;5140906;27;20375;-45
2023/10/20 12:00:30;;;;;;;;;;;;;;;;;;5138482;27;19930;-43
2023/10/20 12:02:56;;;;;;;;;;;;;;;;;;5138457;27;20047;-44
2023/10/20 12:05:21;;;;;;;;;;;;;;;;;;5137306;27;19930;-42
2023/10/20 12:07:47;;;;;;;;;;;;;;;;;;5143726;27;20267;-43
2023/10/20 12:10:12;;;;;;;;;;;;;;;;;;5133113;27;19997;-44
2023/10/20 12:12:38;;;;;;;;;;;;;;;;;;5136234;27;19931;-43
2023/10/20 12:15:04;;;;;;;;;;;;;;;;;;5145521;27;19988;-45
2023/10/20 12:17:29;;;;;;;;;;;;;;;;;;5142338;27;19927;-46
2023/10/20 12:19:55;;;;;;;;;;;;;;;;;;5146796;27;19974;-45
2023/10/20 12:22:20;;;;;;;;;;;;;;;;;;5144081;27;20316;-46
2023/10/20 12:24:46;;;;;;;;;;;;;;;;;;5144165;27;19978;-44
2023/10/20 12:27:11;;;;;;;;;;;;;;;;;;5140944;27;20066;-46
2023/10/20 12:29:39;;;;;;;;;;;;;;;;;;5143684;27;20010;-45
2023/10/20 12:32:05;;;;;;;;;;;;;;;;;;5141942;27;19987;-43
2023/10/20 12:34:32;;;;;;;;;;;;;;;;;;5146382;27;19962;-45
2023/10/20 12:36:59;;;;;;;;;;;;;;;;;;5145399;27;19927;-44
2023/10/20 12:39:25;;;;;;;;;;;;;;;;;;5133134;27;20276;-47
2023/10/20 12:41:51;;;;;;;;;;;;;;;;;;5145716;27;19923;-45
2023/10/20 12:44:18;;;;;;;;;;;;;;;;;;5132538;27;19985;-43
2023/10/20 12:46:44;;;;;;;;;;;;;;;;;;5138518;27;19930;-47
2023/10/20 12:49:09;;;;;;;;;;;;;;;;;;5144770;27;19924;-44
2023/10/20 12:51:40;;;;;;;;;;;;;;;;;;5143780;27;20448;-45
2023/10/20 12:54:05;;;;;;;;;;;;;;;;;;5145712;27;19974;-45
2023/10/20 12:56:30;;;;;;;;;;;;;;;;;;5142327;27;20014;-45
2023/10/20 12:58:56;;;;;;;;;;;;;;;;;;5144999;27;19949;-49
2023/10/20 13:01:22;;;;;;;;;;;;;;;;;;5144889;27;19987;-44
2023/10/20 13:03:48;;;;;;;;;;;;;;;;;;5139425;27;19981;-46
2023/10/20 13:06:14;;;;;;;;;;;;;;;;;;5141646;27;19941;-45
2023/10/20 13:08:39;;;;;;;;;;;;;;;;;;5138029;27;19923;-45
2023/10/20 13:11:05;;;;;;;;;;;;;;;;;;5145078;27;20014;-44
2023/10/20 13:13:32;;;;;;;;;;;;;;;;;;5146142;27;19987;-45
2023/10/20 13:15:57;;;;;;;;;;;;;;;;;;5146900;27;19935;-45
2023/10/20 13:18:23;;;;;;;;;;;;;;;;;;5140525;27;20031;-47
2023/10/20 13:20:49;;;;;;;;;;;;;;;;;;5136977;27;20010;-45
2023/10/20 13:23:14;;;;;;;;;;;;;;;;;;5140629;27;19923;-43
2023/10/20 13:25:40;;;;;;;;;;;;;;;;;;5142433;27;19923;-46
2023/10/20 13:28:05;;;;;;;;;;;;;;;;;;5145356;27;19927;-44
2023/10/20 13:30:31;;;;;;;;;;;;;;;;;;5128910;27;20350;-44
2023/10/20 13:32:56;;;;;;;;;;;;;;;;;;5134391;27;20481;-43
2023/10/20 13:35:22;;;;;;;;;;;;;;;;;;5143690;27;20230;-44
2023/10/20 13:37:47;;;;;;;;;;;;;;;;;;5149425;27;19926;-43
2023/10/20 13:40:13;;;;;;;;;;;;;;;;;;5150455;27;20017;-43
2023/10/20 13:42:39;;;;;;;;;;;;;;;;;;5129864;27;19927;-43
2023/10/20 13:45:05;;;;;;;;;;;;;;;;;;5150231;27;19963;-44
2023/10/20 13:47:31;;;;;;;;;;;;;;;;;;5151477;27;19930;-47
2023/10/20 13:49:56;;;;;;;;;;;;;;;;;;5130553;27;20316;-47
2023/10/20 13:52:22;;;;;;;;;;;;;;;;;;5129974;28;19924;-43
2023/10/20 13:54:47;;;;;;;;;;;;;;;;;;5150243;27;19923;-44
2023/10/20 13:57:13;;;;;;;;;;;;;;;;;;5150610;27;20017;-43
2023/10/20 13:59:39;;;;;;;;;;;;;;;;;;5132947;27;20022;-44
2023/10/20 14:02:04;;;;;;;;;;;;;;;;;;5130602;28;19924;-43
2023/10/20 14:04:30;;;;;;;;;;;;;;;;;;5146070;27;20049;-44
2023/10/20 14:06:55;;;;;;;;;;;;;;;;;;5150248;27;19931;-44
2023/10/20 14:09:21;;;;;;;;;;;;;;;;;;5145483;27;20235;-44
2023/10/20 14:11:47;;;;;;;;;;;;;;;;;;5128305;28;19930;-43
2023/10/20 14:14:12;;;;;;;;;;;;;;;;;;5143205;27;19923;-43
2023/10/20 14:16:38;;;;;;;;;;;;;;;;;;5150725;27;19962;-44
2023/10/20 14:19:04;;;;;;;;;;;;;;;;;;5150110;27;20002;-43
2023/10/20 14:21:29;;;;;;;;;;;;;;;;;;5150857;27;20625;-44
2023/10/20 14:23:55;;;;;;;;;;;;;;;;;;5150157;27;20494;-43
2023/10/20 14:26:20;;;;;;;;;;;;;;;;;;5149652;27;20568;-44
2023/10/20 14:28:46;;;;;;;;;;;;;;;;;;5145177;27;19927;-47
2023/10/20 14:31:11;;;;;;;;;;;;;;;;;;5149949;27;20003;-46
2023/10/20 14:33:37;;;;;;;;;;;;;;;;;;5149652;27;20426;-44
2023/10/20 14:36:02;;;;;;;;;;;;;;;;;;5169401;27;19922;-44
2023/10/20 14:38:28;;;;;;;;;;;;;;;;;;5154042;27;20047;-43
2023/10/20 14:40:53;;;;;;;;;;;;;;;;;;5133774;27;20203;-43
2023/10/20 14:43:19;;;;;;;;;;;;;;;;;;5149512;27;19970;-45
2023/10/20 14:45:44;;;;;;;;;;;;;;;;;;5149384;27;19923;-44
2023/10/20 14:48:10;;;;;;;;;;;;;;;;;;5149801;27;20404;-44
2023/10/20 14:50:35;;;;;;;;;;;;;;;;;;5150226;27;20026;-44
2023/10/20 14:53:01;;;;;;;;;;;;;;;;;;5149367;27;19937;-44
2023/10/20 14:55:26;;;;;;;;;;;;;;;;;;5150158;27;20017;-45
2023/10/20 14:57:51;;;;;;;;;;;;;;;;;;5145906;27;19935;-44
2023/10/20 15:00:17;;;;;;;;;;;;;;;;;;5129056;28;19931;-44
2023/10/20 15:02:43;;;;;;;;;;;;;;;;;;5128852;28;19931;-43
2023/10/20 15:05:08;;;;;;;;;;;;;;;;;;5148938;27;20371;-44
2023/10/20 15:07:36;;;;;;;;;;;;;;;;;;5148924;27;20377;-46
2023/10/20 15:10:01;;;;;;;;;;;;;;;;;;5148584;27;20124;-44
2023/10/20 15:12:26;;;;;;;;;;;;;;;;;;5149310;27;19967;-45
2023/10/20 15:14:53;;;;;;;;;;;;;;;;;;5150162;27;20027;-47
2023/10/20 15:17:19;;;;;;;;;;;;;;;;;;5150691;27;19923;-45
2023/10/20 15:19:44;;;;;;;;;;;;;;;;;;5149488;27;20018;-44
2023/10/20 15:22:10;;;;;;;;;;;;;;;;;;5148112;27;20022;-45
2023/10/20 15:24:35;;;;;;;;;;;;;;;;;;5147473;27;20385;-46
2023/10/20 15:27:01;;;;;;;;;;;;;;;;;;5149579;27;19938;-43
2023/10/20 15:29:26;;;;;;;;;;;;;;;;;;5148869;27;19927;-44
2023/10/20 15:31:52;;;;;;;;;;;;;;;;;;5148850;27;20005;-44
2023/10/20 15:34:18;;;;;;;;;;;;;;;;;;5148547;27;20379;-44
2023/10/20 15:36:43;;;;;;;;;;;;;;;;;;5149291;27;19923;-46
2023/10/20 15:39:10;;;;;;;;;;;;;;;;;;5148792;27;20373;-45
2023/10/20 15:41:35;;;;;;;;;;;;;;;;;;5148224;27;19923;-44
2023/10/20 15:44:01;;;;;;;;;;;;;;;;;;5147925;27;19930;-44
2023/10/20 15:46:27;;;;;;;;;;;;;;;;;;5149020;27;20403;-43
2023/10/20 15:48:53;;;;;;;;;;;;;;;;;;5137130;27;19928;-43
2023/10/20 15:51:18;;;;;;;;;;;;;;;;;;5128185;28;20023;-46
2023/10/20 15:53:44;;;;;;;;;;;;;;;;;;5133831;27;19923;-44
2023/10/20 15:56:10;;;;;;;;;;;;;;;;;;5149002;27;20010;-46
2023/10/20 15:58:35;;;;;;;;;;;;;;;;;;5148834;27;19923;-43
2023/10/20 16:01:03;;;;;;;;;;;;;;;;;;5147441;27;19958;-43
2023/10/20 16:03:29;;;;;;;;;;;;;;;;;;5148341;27;20414;-44
2023/10/20 16:05:55;;;;;;;;;;;;;;;;;;5148566;27;20407;-44
2023/10/20 16:08:20;;;;;;;;;;;;;;;;;;5141723;27;19962;-44
2023/10/20 16:10:46;;;;;;;;;;;;;;;;;;5145189;27;20361;-43
2023/10/20 16:13:11;;;;;;;;;;;;;;;;;;5147936;27;20000;-44
2023/10/20 16:15:36;;;;;;;;;;;;;;;;;;5149028;27;20010;-45
2023/10/20 16:18:02;;;;;;;;;;;;;;;;;;5143685;27;20018;-44
2023/10/20 16:20:27;;;;;;;;;;;;;;;;;;5137186;27;20025;-43
2023/10/20 16:22:53;;;;;;;;;;;;;;;;;;5149253;27;20288;-45
2023/10/20 16:25:18;;;;;;;;;;;;;;;;;;5149207;27;20026;-42
2023/10/20 16:27:44;;;;;;;;;;;;;;;;;;5149151;27;19973;-44
2023/10/20 16:30:11;;;;;;;;;;;;;;;;;;5149069;27;19923;-45
2023/10/20 16:32:38;;;;;;;;;;;;;;;;;;5148153;27;20017;-44
2023/10/20 16:35:04;;;;;;;;;;;;;;;;;;5148751;27;20011;-46
2023/10/20 16:37:29;;;;;;;;;;;;;;;;;;5148565;27;19927;-45
2023/10/20 16:39:54;;;;;;;;;;;;;;;;;;5130107;27;20509;-44
2023/10/20 16:42:20;;;;;;;;;;;;;;;;;;5148946;27;20393;-45
2023/10/20 16:44:45;;;;;;;;;;;;;;;;;;5148195;27;20275;-44
2023/10/20 16:47:11;;;;;;;;;;;;;;;;;;5148669;27;19930;-43
2023/10/20 16:49:36;;;;;;;;;;;;;;;;;;5148573;27;20453;-43
2023/10/20 16:52:02;;;;;;;;;;;;;;;;;;5147794;27;20013;-45
2023/10/20 16:54:28;;;;;;;;;;;;;;;;;;5147725;27;20006;-45
2023/10/20 16:56:54;;;;;;;;;;;;;;;;;;5147893;27;19931;-46
2023/10/20 16:59:23;;;;;;;;;;;;;;;;;;5148394;27;20010;-43
2023/10/20 17:01:49;;;;;;;;;;;;;;;;;;5147949;27;19985;-45
2023/10/20 17:04:14;;;;;;;;;;;;;;;;;;5147431;27;19923;-43
2023/10/20 17:06:40;;;;;;;;;;;;;;;;;;5147356;27;20005;-44
2023/10/20 17:09:05;;;;;;;;;;;;;;;;;;5144565;27;20009;-43